Terminal Aerodrome Forecast
Issued by NWS

Home | Current Version | Previous Version | Text Only | Print | Product List | Glossary On
Versions: 1 2 3 4 5 6 7 8 9 10 11 12 13 14 15
763
FTUS45 KTFX 301533 AAA
TAFCTB
TAF AMD
KCTB 301533Z 3016/3112 33015KT P6SM SKC
     FM301800 24011G18KT P6SM SCT100 SCT200
     FM310300 26011KT P6SM SKC=

USA.gov is the U.S. government's official web portal to all federal, state and local government web resources and services.